sensor_id;sensor_type;location;lat;lon;timestamp;pressure;altitude;pressure_sealevel;temperature;humidity
62978;BME280;49073;42.352;23.808;2023-02-28T00:02:12;95146.34;;;7.70;84.75
62978;BME280;49073;42.352;23.808;2023-02-28T00:05:15;95149.13;;;7.74;83.57
62978;BME280;49073;42.352;23.808;2023-02-28T00:08:16;95139.03;;;7.67;83.62
62978;BME280;49073;42.352;23.808;2023-02-28T00:11:17;95146.63;;;7.48;84.67
62978;BME280;49073;42.352;23.808;2023-02-28T00:14:17;95137.13;;;7.47;85.27
62978;BME280;49073;42.352;23.808;2023-02-28T00:17:19;95148.59;;;7.30;85.82
62978;BME280;49073;42.352;23.808;2023-02-28T00:20:21;95159.78;;;7.35;85.40
62978;BME280;49073;42.352;23.808;2023-02-28T00:23:22;95170.13;;;7.28;85.20
62978;BME280;49073;42.352;23.808;2023-02-28T00:26:22;95156.72;;;7.24;85.21
62978;BME280;49073;42.352;23.808;2023-02-28T00:29:23;95147.09;;;7.20;86.16
62978;BME280;49073;42.352;23.808;2023-02-28T00:32:24;95147.38;;;7.27;86.15
62978;BME280;49073;42.352;23.808;2023-02-28T00:35:25;95159.72;;;7.14;86.74
62978;BME280;49073;42.352;23.808;2023-02-28T00:38:25;95149.16;;;7.05;87.45
62978;BME280;49073;42.352;23.808;2023-02-28T00:41:26;95147.41;;;7.18;86.83
62978;BME280;49073;42.352;23.808;2023-02-28T00:44:26;95145.09;;;7.17;85.51
62978;BME280;49073;42.352;23.808;2023-02-28T00:47:27;95135.75;;;7.10;84.96
62978;BME280;49073;42.352;23.808;2023-02-28T00:50:28;95130.78;;;7.00;84.44
62978;BME280;49073;42.352;23.808;2023-02-28T00:53:29;95132.06;;;6.94;85.32
62978;BME280;49073;42.352;23.808;2023-02-28T00:56:29;95123.72;;;6.74;86.72
62978;BME280;49073;42.352;23.808;2023-02-28T00:59:30;95117.91;;;6.90;87.41
62978;BME280;49073;42.352;23.808;2023-02-28T01:02:31;95116.00;;;6.99;85.26
62978;BME280;49073;42.352;23.808;2023-02-28T01:05:31;95131.13;;;6.98;83.69
62978;BME280;49073;42.352;23.808;2023-02-28T01:08:32;95145.25;;;6.64;84.48
62978;BME280;49073;42.352;23.808;2023-02-28T01:11:33;95140.88;;;6.68;83.52
62978;BME280;49073;42.352;23.808;2023-02-28T01:14:35;95129.09;;;6.57;83.39
62978;BME280;49073;42.352;23.808;2023-02-28T01:17:36;95131.13;;;6.51;82.60
62978;BME280;49073;42.352;23.808;2023-02-28T01:20:37;95129.72;;;6.36;83.94
62978;BME280;49073;42.352;23.808;2023-02-28T01:23:39;95129.09;;;6.39;82.98
62978;BME280;49073;42.352;23.808;2023-02-28T01:26:40;95128.50;;;6.24;83.53
62978;BME280;49073;42.352;23.808;2023-02-28T01:29:41;95141.44;;;6.00;84.64
62978;BME280;49073;42.352;23.808;2023-02-28T01:32:41;95129.63;;;6.06;85.20
62978;BME280;49073;42.352;23.808;2023-02-28T01:35:42;95136.78;;;6.05;86.69
62978;BME280;49073;42.352;23.808;2023-02-28T01:38:43;95137.06;;;6.13;87.65
62978;BME280;49073;42.352;23.808;2023-02-28T01:41:45;95140.66;;;6.25;87.77
62978;BME280;49073;42.352;23.808;2023-02-28T01:45:06;95144.69;;;6.32;87.20
62978;BME280;49073;42.352;23.808;2023-02-28T01:48:17;95143.94;;;6.31;86.11
62978;BME280;49073;42.352;23.808;2023-02-28T01:51:27;95132.53;;;6.31;86.04
62978;BME280;49073;42.352;23.808;2023-02-28T01:54:31;95113.44;;;6.25;84.52
62978;BME280;49073;42.352;23.808;2023-02-28T01:57:38;95114.06;;;6.13;84.96
62978;BME280;49073;42.352;23.808;2023-02-28T02:00:41;95125.25;;;6.10;85.87
62978;BME280;49073;42.352;23.808;2023-02-28T02:03:42;95125.25;;;5.66;87.63
62978;BME280;49073;42.352;23.808;2023-02-28T02:06:45;95139.56;;;5.82;87.73
62978;BME280;49073;42.352;23.808;2023-02-28T02:09:47;95148.72;;;5.85;86.30
62978;BME280;49073;42.352;23.808;2023-02-28T02:16:34;95155.25;;;5.61;86.20
62978;BME280;49073;42.352;23.808;2023-02-28T02:23:39;95174.81;;;5.51;85.12
62978;BME280;49073;42.352;23.808;2023-02-28T02:33:39;95184.22;;;5.26;83.25
62978;BME280;49073;42.352;23.808;2023-02-28T02:40:15;95199.97;;;5.00;83.92
62978;BME280;49073;42.352;23.808;2023-02-28T02:43:29;95206.44;;;4.93;83.13
62978;BME280;49073;42.352;23.808;2023-02-28T02:46:35;95197.09;;;4.87;83.66
62978;BME280;49073;42.352;23.808;2023-02-28T02:49:40;95203.19;;;4.88;83.25
62978;BME280;49073;42.352;23.808;2023-02-28T02:52:49;95221.00;;;4.82;84.30
62978;BME280;49073;42.352;23.808;2023-02-28T02:55:52;95214.34;;;4.85;85.20
62978;BME280;49073;42.352;23.808;2023-02-28T02:58:57;95215.91;;;4.86;83.60
62978;BME280;49073;42.352;23.808;2023-02-28T03:02:03;95210.88;;;4.75;84.98
62978;BME280;49073;42.352;23.808;2023-02-28T03:05:08;95216.81;;;4.81;88.29
62978;BME280;49073;42.352;23.808;2023-02-28T03:08:13;95218.56;;;4.94;90.57
62978;BME280;49073;42.352;23.808;2023-02-28T03:11:15;95222.97;;;4.99;92.45
62978;BME280;49073;42.352;23.808;2023-02-28T03:14:40;95216.72;;;5.27;92.52
62978;BME280;49073;42.352;23.808;2023-02-28T03:18:15;95227.19;;;5.41;91.88
62978;BME280;49073;42.352;23.808;2023-02-28T03:21:32;95221.00;;;5.54;92.53
62978;BME280;49073;42.352;23.808;2023-02-28T03:28:15;95228.78;;;5.59;93.07
62978;BME280;49073;42.352;23.808;2023-02-28T03:31:39;95225.19;;;5.55;93.09
62978;BME280;49073;42.352;23.808;2023-02-28T03:35:01;95223.94;;;5.52;92.62
62978;BME280;49073;42.352;23.808;2023-02-28T03:38:29;95226.19;;;5.77;91.92
62978;BME280;49073;42.352;23.808;2023-02-28T03:41:57;95231.47;;;5.77;91.48
62978;BME280;49073;42.352;23.808;2023-02-28T03:45:05;95229.34;;;5.96;90.90
62978;BME280;49073;42.352;23.808;2023-02-28T03:48:13;95227.34;;;6.02;91.10
62978;BME280;49073;42.352;23.808;2023-02-28T03:51:18;95222.22;;;6.06;90.94
62978;BME280;49073;42.352;23.808;2023-02-28T03:54:30;95228.13;;;6.11;91.43
62978;BME280;49073;42.352;23.808;2023-02-28T03:57:40;95226.28;;;6.21;91.53
62978;BME280;49073;42.352;23.808;2023-02-28T04:00:47;95232.66;;;6.29;91.82
62978;BME280;49073;42.352;23.808;2023-02-28T04:03:50;95233.91;;;6.40;91.96
62978;BME280;49073;42.352;23.808;2023-02-28T04:06:51;95235.28;;;6.46;91.83
62978;BME280;49073;42.352;23.808;2023-02-28T04:09:52;95241.06;;;6.39;92.06
62978;BME280;49073;42.352;23.808;2023-02-28T04:12:53;95240.59;;;6.46;91.42
62978;BME280;49073;42.352;23.808;2023-02-28T04:15:54;95242.16;;;6.56;90.89
62978;BME280;49073;42.352;23.808;2023-02-28T04:18:54;95241.84;;;6.49;90.67
62978;BME280;49073;42.352;23.808;2023-02-28T04:22:03;95251.19;;;6.46;91.12
62978;BME280;49073;42.352;23.808;2023-02-28T04:25:04;95241.22;;;6.43;91.16
62978;BME280;49073;42.352;23.808;2023-02-28T04:28:06;95256.81;;;6.45;90.98
62978;BME280;49073;42.352;23.808;2023-02-28T04:31:07;95259.13;;;6.37;91.33
62978;BME280;49073;42.352;23.808;2023-02-28T04:34:07;95260.69;;;6.30;92.20
62978;BME280;49073;42.352;23.808;2023-02-28T04:37:08;95261.16;;;6.40;92.19
62978;BME280;49073;42.352;23.808;2023-02-28T04:40:09;95257.88;;;6.44;91.62
62978;BME280;49073;42.352;23.808;2023-02-28T04:43:09;95261.47;;;6.39;92.40
62978;BME280;49073;42.352;23.808;2023-02-28T04:46:10;95250.88;;;6.39;92.38
62978;BME280;49073;42.352;23.808;2023-02-28T04:49:12;95256.81;;;6.45;92.36
62978;BME280;49073;42.352;23.808;2023-02-28T04:52:13;95257.09;;;6.43;91.89
62978;BME280;49073;42.352;23.808;2023-02-28T04:55:13;95253.53;;;6.21;92.48
62978;BME280;49073;42.352;23.808;2023-02-28T04:58:14;95272.84;;;6.22;93.30
62978;BME280;49073;42.352;23.808;2023-02-28T05:01:27;95270.34;;;6.34;93.09
62978;BME280;49073;42.352;23.808;2023-02-28T05:04:29;95273.13;;;6.38;92.80
62978;BME280;49073;42.352;23.808;2023-02-28T05:07:30;95275.94;;;6.42;91.98
62978;BME280;49073;42.352;23.808;2023-02-28T05:10:30;95276.56;;;6.47;92.02
62978;BME280;49073;42.352;23.808;2023-02-28T05:13:31;95280.00;;;6.48;92.03
62978;BME280;49073;42.352;23.808;2023-02-28T05:16:32;95280.63;;;6.62;91.66
62978;BME280;49073;42.352;23.808;2023-02-28T05:19:33;95273.16;;;6.47;91.72
62978;BME280;49073;42.352;23.808;2023-02-28T05:22:33;95292.31;;;6.44;92.15
62978;BME280;49073;42.352;23.808;2023-02-28T05:25:34;95297.28;;;6.36;92.68
62978;BME280;49073;42.352;23.808;2023-02-28T05:28:34;95305.22;;;6.36;92.69
62978;BME280;49073;42.352;23.808;2023-02-28T05:31:36;95298.38;;;6.44;92.48
62978;BME280;49073;42.352;23.808;2023-02-28T05:34:38;95303.81;;;6.39;92.36
62978;BME280;49073;42.352;23.808;2023-02-28T05:37:39;95307.88;;;6.45;92.62
62978;BME280;49073;42.352;23.808;2023-02-28T05:40:39;95306.34;;;6.62;92.06
62978;BME280;49073;42.352;23.808;2023-02-28T05:54:13;95325.47;;;6.94;89.51
62978;BME280;49073;42.352;23.808;2023-02-28T05:57:14;95329.53;;;6.82;91.20
62978;BME280;49073;42.352;23.808;2023-02-28T06:00:15;95327.22;;;6.81;91.51
62978;BME280;49073;42.352;23.808;2023-02-28T06:03:17;95328.44;;;6.83;91.87
62978;BME280;49073;42.352;23.808;2023-02-28T06:06:18;95343.41;;;6.79;92.26
62978;BME280;49073;42.352;23.808;2023-02-28T06:09:19;95337.94;;;6.84;92.36
62978;BME280;49073;42.352;23.808;2023-02-28T06:12:20;95337.63;;;6.95;91.90
62978;BME280;49073;42.352;23.808;2023-02-28T06:15:21;95348.72;;;6.88;92.41
62978;BME280;49073;42.352;23.808;2023-02-28T06:18:21;95346.84;;;6.89;93.03
62978;BME280;49073;42.352;23.808;2023-02-28T06:21:22;95344.19;;;6.80;93.11
62978;BME280;49073;42.352;23.808;2023-02-28T06:24:24;95352.91;;;6.72;94.25
62978;BME280;49073;42.352;23.808;2023-02-28T06:27:25;95352.28;;;6.57;94.85
62978;BME280;49073;42.352;23.808;2023-02-28T06:30:25;95350.09;;;6.59;95.71
62978;BME280;49073;42.352;23.808;2023-02-28T06:33:28;95356.63;;;6.70;95.72
62978;BME280;49073;42.352;23.808;2023-02-28T06:36:28;95349.16;;;6.73;95.61
62978;BME280;49073;42.352;23.808;2023-02-28T06:39:30;95347.94;;;6.79;96.25
62978;BME280;49073;42.352;23.808;2023-02-28T06:42:31;95355.69;;;6.66;97.47
62978;BME280;49073;42.352;23.808;2023-02-28T06:45:32;95352.75;;;6.50;98.79
62978;BME280;49073;42.352;23.808;2023-02-28T06:48:33;95354.44;;;6.46;100.00
62978;BME280;49073;42.352;23.808;2023-02-28T06:51:36;95360.81;;;6.45;100.00
62978;BME280;49073;42.352;23.808;2023-02-28T06:54:37;95362.66;;;6.36;100.00
62978;BME280;49073;42.352;23.808;2023-02-28T06:57:38;95354.72;;;6.27;100.00
62978;BME280;49073;42.352;23.808;2023-02-28T07:00:38;95361.22;;;6.12;100.00
62978;BME280;49073;42.352;23.808;2023-02-28T07:03:39;95360.44;;;6.11;100.00
62978;BME280;49073;42.352;23.808;2023-02-28T07:06:40;95363.72;;;6.17;100.00
62978;BME280;49073;42.352;23.808;2023-02-28T07:09:40;95365.59;;;6.25;100.00
62978;BME280;49073;42.352;23.808;2023-02-28T07:12:41;95369.06;;;6.26;100.00
62978;BME280;49073;42.352;23.808;2023-02-28T07:15:41;95388.53;;;6.39;100.00
62978;BME280;49073;42.352;23.808;2023-02-28T07:18:42;95371.06;;;6.29;100.00
62978;BME280;49073;42.352;23.808;2023-02-28T07:21:42;95380.88;;;6.29;100.00
62978;BME280;49073;42.352;23.808;2023-02-28T07:24:43;95382.28;;;6.35;100.00
62978;BME280;49073;42.352;23.808;2023-02-28T07:27:43;95372.69;;;6.57;100.00
62978;BME280;49073;42.352;23.808;2023-02-28T07:30:44;95367.84;;;6.67;100.00
62978;BME280;49073;42.352;23.808;2023-02-28T07:33:44;95377.81;;;6.70;100.00
62978;BME280;49073;42.352;23.808;2023-02-28T07:36:45;95383.44;;;6.69;100.00
62978;BME280;49073;42.352;23.808;2023-02-28T07:39:45;95381.41;;;6.75;99.99
62978;BME280;49073;42.352;23.808;2023-02-28T07:42:46;95389.53;;;6.96;99.09
62978;BME280;49073;42.352;23.808;2023-02-28T07:45:46;95390.31;;;6.88;98.90
62978;BME280;49073;42.352;23.808;2023-02-28T07:48:47;95400.59;;;6.80;99.23
62978;BME280;49073;42.352;23.808;2023-02-28T07:51:47;95398.38;;;6.56;100.00
62978;BME280;49073;42.352;23.808;2023-02-28T07:54:48;95395.59;;;6.52;100.00
62978;BME280;49073;42.352;23.808;2023-02-28T07:57:48;95391.19;;;6.48;100.00
62978;BME280;49073;42.352;23.808;2023-02-28T08:00:49;95387.63;;;6.52;100.00
62978;BME280;49073;42.352;23.808;2023-02-28T08:03:50;95382.16;;;6.49;100.00
62978;BME280;49073;42.352;23.808;2023-02-28T08:06:50;95378.13;;;6.60;100.00
62978;BME280;49073;42.352;23.808;2023-02-28T08:09:54;95375.75;;;6.41;100.00
62978;BME280;49073;42.352;23.808;2023-02-28T08:12:54;95374.34;;;6.35;100.00
62978;BME280;49073;42.352;23.808;2023-02-28T08:15:55;95378.88;;;6.43;100.00
62978;BME280;49073;42.352;23.808;2023-02-28T08:18:56;95369.09;;;6.52;100.00
62978;BME280;49073;42.352;23.808;2023-02-28T08:21:57;95367.06;;;6.58;100.00
62978;BME280;49073;42.352;23.808;2023-02-28T08:24:58;95361.00;;;6.58;100.00
62978;BME280;49073;42.352;23.808;2023-02-28T08:27:58;95361.94;;;6.53;100.00
62978;BME280;49073;42.352;23.808;2023-02-28T08:30:58;95367.81;;;6.32;100.00
62978;BME280;49073;42.352;23.808;2023-02-28T08:33:59;95368.13;;;6.31;100.00
62978;BME280;49073;42.352;23.808;2023-02-28T08:37:00;95365.47;;;6.31;100.00
62978;BME280;49073;42.352;23.808;2023-02-28T08:40:00;95376.19;;;6.25;100.00
62978;BME280;49073;42.352;23.808;2023-02-28T08:43:01;95372.97;;;6.46;100.00
62978;BME280;49073;42.352;23.808;2023-02-28T08:46:02;95376.09;;;6.48;100.00
62978;BME280;49073;42.352;23.808;2023-02-28T08:49:03;95374.53;;;6.47;100.00
62978;BME280;49073;42.352;23.808;2023-02-28T08:52:04;95376.56;;;6.42;100.00
62978;BME280;49073;42.352;23.808;2023-02-28T08:55:05;95381.66;;;6.38;100.00
62978;BME280;49073;42.352;23.808;2023-02-28T08:58:05;95383.69;;;6.32;100.00
62978;BME280;49073;42.352;23.808;2023-02-28T09:01:20;95371.94;;;6.16;100.00
62978;BME280;49073;42.352;23.808;2023-02-28T09:04:21;95377.75;;;6.26;100.00
62978;BME280;49073;42.352;23.808;2023-02-28T09:07:22;95385.09;;;6.30;100.00
62978;BME280;49073;42.352;23.808;2023-02-28T09:10:23;95381.16;;;6.18;100.00
62978;BME280;49073;42.352;23.808;2023-02-28T09:13:24;95385.22;;;6.24;100.00
62978;BME280;49073;42.352;23.808;2023-02-28T09:16:25;95384.63;;;6.36;100.00
62978;BME280;49073;42.352;23.808;2023-02-28T09:19:26;95380.09;;;6.37;100.00
62978;BME280;49073;42.352;23.808;2023-02-28T09:22:26;95381.66;;;6.38;100.00
62978;BME280;49073;42.352;23.808;2023-02-28T09:25:27;95387.44;;;6.40;100.00
62978;BME280;49073;42.352;23.808;2023-02-28T09:28:28;95382.00;;;6.45;100.00
62978;BME280;49073;42.352;23.808;2023-02-28T09:31:28;95387.47;;;6.49;100.00
62978;BME280;49073;42.352;23.808;2023-02-28T09:34:29;95389.31;;;6.39;100.00
62978;BME280;49073;42.352;23.808;2023-02-28T09:37:32;95392.59;;;6.45;100.00
62978;BME280;49073;42.352;23.808;2023-02-28T09:40:40;95392.44;;;6.42;100.00
62978;BME280;49073;42.352;23.808;2023-02-28T09:44:02;95387.47;;;6.49;100.00
62978;BME280;49073;42.352;23.808;2023-02-28T09:50:36;95386.00;;;6.25;100.00
62978;BME280;49073;42.352;23.808;2023-02-28T09:53:38;95381.81;;;6.33;100.00
62978;BME280;49073;42.352;23.808;2023-02-28T09:56:41;95387.72;;;6.30;100.00
62978;BME280;49073;42.352;23.808;2023-02-28T10:06:29;95381.31;;;6.13;100.00
62978;BME280;49073;42.352;23.808;2023-02-28T10:09:32;95371.16;;;6.06;100.00
62978;BME280;49073;42.352;23.808;2023-02-28T10:12:37;95369.94;;;6.13;100.00
62978;BME280;49073;42.352;23.808;2023-02-28T10:15:42;95365.09;;;6.06;100.00
62978;BME280;49073;42.352;23.808;2023-02-28T10:18:47;95366.84;;;6.19;100.00
62978;BME280;49073;42.352;23.808;2023-02-28T10:21:59;95366.22;;;6.22;100.00
62978;BME280;49073;42.352;23.808;2023-02-28T10:25:00;95366.50;;;6.12;100.00
62978;BME280;49073;42.352;23.808;2023-02-28T10:28:11;95358.72;;;6.07;100.00
62978;BME280;49073;42.352;23.808;2023-02-28T10:31:17;95352.81;;;6.10;100.00
62978;BME280;49073;42.352;23.808;2023-02-28T10:34:18;95349.09;;;6.20;100.00
62978;BME280;49073;42.352;23.808;2023-02-28T10:37:19;95344.72;;;6.15;100.00
62978;BME280;49073;42.352;23.808;2023-02-28T10:43:23;95338.66;;;6.23;100.00
62978;BME280;49073;42.352;23.808;2023-02-28T10:46:24;95348.75;;;6.13;100.00
62978;BME280;49073;42.352;23.808;2023-02-28T10:49:28;95355.41;;;6.01;100.00
62978;BME280;49073;42.352;23.808;2023-02-28T10:52:37;95346.56;;;6.06;100.00
62978;BME280;49073;42.352;23.808;2023-02-28T10:55:39;95342.38;;;6.05;100.00
62978;BME280;49073;42.352;23.808;2023-02-28T11:01:58;95331.16;;;6.08;100.00
62978;BME280;49073;42.352;23.808;2023-02-28T11:04:59;95320.13;;;6.06;100.00
62978;BME280;49073;42.352;23.808;2023-02-28T11:08:06;95319.44;;;6.00;100.00
62978;BME280;49073;42.352;23.808;2023-02-28T11:11:11;95318.56;;;6.05;100.00
62978;BME280;49073;42.352;23.808;2023-02-28T11:14:34;95322.91;;;6.01;100.00
62978;BME280;49073;42.352;23.808;2023-02-28T11:17:36;95322.28;;;6.04;100.00
62978;BME280;49073;42.352;23.808;2023-02-28T11:20:38;95321.94;;;5.96;100.00
62978;BME280;49073;42.352;23.808;2023-02-28T11:23:40;95323.16;;;5.99;100.00
62978;BME280;49073;42.352;23.808;2023-02-28T11:26:46;95322.41;;;5.99;100.00
62978;BME280;49073;42.352;23.808;2023-02-28T11:29:48;95309.69;;;6.01;100.00
62978;BME280;49073;42.352;23.808;2023-02-28T11:32:49;95309.69;;;6.01;100.00
62978;BME280;49073;42.352;23.808;2023-02-28T11:35:51;95307.66;;;6.06;100.00
62978;BME280;49073;42.352;23.808;2023-02-28T11:38:59;95308.38;;;5.89;100.00
62978;BME280;49073;42.352;23.808;2023-02-28T11:45:18;95301.53;;;5.97;100.00
62978;BME280;49073;42.352;23.808;2023-02-28T11:48:24;95313.16;;;5.87;100.00
62978;BME280;49073;42.352;23.808;2023-02-28T11:51:33;95313.66;;;5.89;100.00
62978;BME280;49073;42.352;23.808;2023-02-28T12:05:24;95283.50;;;5.99;100.00
62978;BME280;49073;42.352;23.808;2023-02-28T12:08:49;95285.09;;;6.09;100.00
62978;BME280;49073;42.352;23.808;2023-02-28T12:11:55;95293.03;;;6.18;100.00
62978;BME280;49073;42.352;23.808;2023-02-28T12:15:33;95286.81;;;6.05;100.00
62978;BME280;49073;42.352;23.808;2023-02-28T12:28:10;95281.34;;;6.01;100.00
62978;BME280;49073;42.352;23.808;2023-02-28T12:31:20;95289.88;;;5.98;100.00
62978;BME280;49073;42.352;23.808;2023-02-28T12:34:29;95292.66;;;5.93;100.00
62978;BME280;49073;42.352;23.808;2023-02-28T12:37:37;95290.91;;;5.88;100.00
62978;BME280;49073;42.352;23.808;2023-02-28T12:40:48;95287.69;;;6.00;100.00
62978;BME280;49073;42.352;23.808;2023-02-28T12:44:11;95282.59;;;6.04;100.00
62978;BME280;49073;42.352;23.808;2023-02-28T12:47:17;95278.06;;;5.95;100.00
62978;BME280;49073;42.352;23.808;2023-02-28T12:50:19;95275.56;;;5.99;100.00
62978;BME280;49073;42.352;23.808;2023-02-28T13:00:12;95274.84;;;6.16;100.00
62978;BME280;49073;42.352;23.808;2023-02-28T13:10:02;95250.09;;;6.30;100.00
62978;BME280;49073;42.352;23.808;2023-02-28T13:13:04;95256.16;;;6.39;100.00
62978;BME280;49073;42.352;23.808;2023-02-28T13:16:06;95255.72;;;6.28;100.00
62978;BME280;49073;42.352;23.808;2023-02-28T13:19:10;95242.47;;;6.19;100.00
62978;BME280;49073;42.352;23.808;2023-02-28T13:22:40;95261.94;;;6.23;100.00
62978;BME280;49073;42.352;23.808;2023-02-28T13:38:16;95251.81;;;6.25;100.00
62978;BME280;49073;42.352;23.808;2023-02-28T13:44:30;95251.97;;;6.20;100.00
62978;BME280;49073;42.352;23.808;2023-02-28T13:47:53;95262.88;;;6.19;100.00
62978;BME280;49073;42.352;23.808;2023-02-28T13:50:54;95275.78;;;6.20;100.00
62978;BME280;49073;42.352;23.808;2023-02-28T13:54:01;95266.44;;;6.32;100.00
62978;BME280;49073;42.352;23.808;2023-02-28T14:06:54;95261.91;;;6.06;100.00
62978;BME280;49073;42.352;23.808;2023-02-28T14:10:06;95260.34;;;6.14;100.00
62978;BME280;49073;42.352;23.808;2023-02-28T14:13:36;95258.16;;;6.16;100.00
62978;BME280;49073;42.352;23.808;2023-02-28T14:16:44;95257.25;;;6.03;100.00
62978;BME280;49073;42.352;23.808;2023-02-28T14:19:46;95260.00;;;5.97;100.00
62978;BME280;49073;42.352;23.808;2023-02-28T14:23:16;95258.41;;;5.88;100.00
62978;BME280;49073;42.352;23.808;2023-02-28T14:26:55;95261.53;;;5.90;100.00
62978;BME280;49073;42.352;23.808;2023-02-28T14:30:15;95268.72;;;5.89;100.00
62978;BME280;49073;42.352;23.808;2023-02-28T14:36:41;95258.25;;;5.84;100.00
62978;BME280;49073;42.352;23.808;2023-02-28T14:39:43;95252.94;;;5.84;100.00
62978;BME280;49073;42.352;23.808;2023-02-28T14:43:04;95256.22;;;5.81;100.00
62978;BME280;49073;42.352;23.808;2023-02-28T14:46:06;95252.19;;;5.83;100.00
62978;BME280;49073;42.352;23.808;2023-02-28T14:49:15;95252.50;;;5.91;100.00
62978;BME280;49073;42.352;23.808;2023-02-28T14:52:21;95248.44;;;5.85;100.00
62978;BME280;49073;42.352;23.808;2023-02-28T14:55:34;95256.34;;;5.76;100.00
62978;BME280;49073;42.352;23.808;2023-02-28T14:58:35;95250.31;;;5.84;100.00
62978;BME280;49073;42.352;23.808;2023-02-28T15:01:36;95236.31;;;5.83;100.00
62978;BME280;49073;42.352;23.808;2023-02-28T15:04:36;95252.16;;;5.75;100.00
62978;BME280;49073;42.352;23.808;2023-02-28T15:07:38;95252.94;;;5.84;100.00
62978;BME280;49073;42.352;23.808;2023-02-28T15:10:43;95246.94;;;5.92;100.00
62978;BME280;49073;42.352;23.808;2023-02-28T15:13:50;95257.25;;;6.03;100.00
62978;BME280;49073;42.352;23.808;2023-02-28T15:16:59;95255.47;;;5.89;100.00
62978;BME280;49073;42.352;23.808;2023-02-28T15:20:04;95259.34;;;5.92;100.00
62978;BME280;49073;42.352;23.808;2023-02-28T15:23:05;95259.41;;;6.01;100.00
62978;BME280;49073;42.352;23.808;2023-02-28T15:26:06;95254.72;;;5.97;100.00
62978;BME280;49073;42.352;23.808;2023-02-28T15:29:15;95257.81;;;6.00;100.00
62978;BME280;49073;42.352;23.808;2023-02-28T15:35:31;95258.91;;;5.99;100.00
62978;BME280;49073;42.352;23.808;2023-02-28T15:38:35;95269.00;;;5.88;100.00
62978;BME280;49073;42.352;23.808;2023-02-28T15:41:37;95265.13;;;5.94;100.00
62978;BME280;49073;42.352;23.808;2023-02-28T15:44:41;95277.94;;;6.01;100.00
62978;BME280;49073;42.352;23.808;2023-02-28T15:47:45;95277.13;;;6.00;100.00
62978;BME280;49073;42.352;23.808;2023-02-28T15:51:31;95272.56;;;5.83;100.00
62978;BME280;49073;42.352;23.808;2023-02-28T15:54:28;95268.97;;;5.79;100.00
62978;BME280;49073;42.352;23.808;2023-02-28T15:57:29;95274.53;;;5.68;100.00
62978;BME280;49073;42.352;23.808;2023-02-28T16:00:31;95275.00;;;5.71;100.00
62978;BME280;49073;42.352;23.808;2023-02-28T16:03:49;95273.31;;;5.75;100.00
62978;BME280;49073;42.352;23.808;2023-02-28T16:09:59;95275.34;;;5.78;100.00
62978;BME280;49073;42.352;23.808;2023-02-28T16:13:02;95281.72;;;5.68;100.00
62978;BME280;49073;42.352;23.808;2023-02-28T16:16:03;95288.09;;;5.67;100.00
62978;BME280;49073;42.352;23.808;2023-02-28T16:19:03;95290.88;;;5.71;100.00
62978;BME280;49073;42.352;23.808;2023-02-28T16:22:07;95292.00;;;5.78;100.00
62978;BME280;49073;42.352;23.808;2023-02-28T16:25:15;95290.13;;;5.79;100.00
62978;BME280;49073;42.352;23.808;2023-02-28T16:28:20;95284.97;;;5.74;100.00
62978;BME280;49073;42.352;23.808;2023-02-28T16:31:23;95297.28;;;5.78;100.00
62978;BME280;49073;42.352;23.808;2023-02-28T16:34:24;95309.56;;;5.83;100.00
62978;BME280;49073;42.352;23.808;2023-02-28T16:37:27;95306.59;;;5.67;100.00
62978;BME280;49073;42.352;23.808;2023-02-28T16:40:29;95304.56;;;5.64;100.00
62978;BME280;49073;42.352;23.808;2023-02-28T16:43:33;95300.91;;;5.51;100.00
62978;BME280;49073;42.352;23.808;2023-02-28T16:46:34;95314.94;;;5.60;100.00
62978;BME280;49073;42.352;23.808;2023-02-28T16:49:35;95320.81;;;5.48;100.00
62978;BME280;49073;42.352;23.808;2023-02-28T16:52:35;95331.22;;;5.45;100.00
62978;BME280;49073;42.352;23.808;2023-02-28T16:55:36;95323.16;;;5.50;100.00
62978;BME280;49073;42.352;23.808;2023-02-28T16:58:37;95313.81;;;5.52;100.00
62978;BME280;49073;42.352;23.808;2023-02-28T17:01:38;95323.16;;;5.50;100.00
62978;BME280;49073;42.352;23.808;2023-02-28T17:04:38;95322.69;;;5.57;100.00
62978;BME280;49073;42.352;23.808;2023-02-28T17:07:40;95324.56;;;5.56;100.00
62978;BME280;49073;42.352;23.808;2023-02-28T17:10:40;95319.25;;;5.47;100.00
62978;BME280;49073;42.352;23.808;2023-02-28T17:13:41;95321.50;;;5.31;100.00
62978;BME280;49073;42.352;23.808;2023-02-28T17:16:42;95322.88;;;5.29;100.00
62978;BME280;49073;42.352;23.808;2023-02-28T17:19:42;95318.34;;;5.20;100.00
62978;BME280;49073;42.352;23.808;2023-02-28T17:22:44;95330.53;;;5.30;100.00
62978;BME280;49073;42.352;23.808;2023-02-28T17:25:44;95331.91;;;5.28;100.00
62978;BME280;49073;42.352;23.808;2023-02-28T17:28:54;95333.09;;;5.21;100.00
62978;BME280;49073;42.352;23.808;2023-02-28T17:31:58;95336.16;;;5.15;100.00
62978;BME280;49073;42.352;23.808;2023-02-28T17:35:00;95335.06;;;5.16;100.00
62978;BME280;49073;42.352;23.808;2023-02-28T17:38:00;95340.84;;;5.18;100.00
62978;BME280;49073;42.352;23.808;2023-02-28T17:41:01;95339.00;;;5.18;100.00
62978;BME280;49073;42.352;23.808;2023-02-28T17:44:02;95329.03;;;5.15;100.00
62978;BME280;49073;42.352;23.808;2023-02-28T17:47:02;95338.63;;;5.11;100.00
62978;BME280;49073;42.352;23.808;2023-02-28T17:50:04;95337.25;;;5.14;100.00
62978;BME280;49073;42.352;23.808;2023-02-28T17:53:05;95336.00;;;5.11;100.00
62978;BME280;49073;42.352;23.808;2023-02-28T17:56:22;95339.53;;;5.06;100.00
62978;BME280;49073;42.352;23.808;2023-02-28T17:59:23;95328.84;;;5.12;100.00
62978;BME280;49073;42.352;23.808;2023-02-28T18:02:23;95325.25;;;5.07;100.00
62978;BME280;49073;42.352;23.808;2023-02-28T18:05:24;95328.97;;;5.06;100.00
62978;BME280;49073;42.352;23.808;2023-02-28T18:08:25;95331.13;;;5.04;100.00
62978;BME280;49073;42.352;23.808;2023-02-28T18:11:26;95316.59;;;4.93;100.00